Time;durP1;ratioP1;P1;durP2;ratioP2;P2;SDS_P1;SDS_P2;PMS_P1;PMS_P2;Temp;Humidity;BMP_temperature;BMP_pressure;BME280_temperature;BME280_humidity;BME280_pressure;Samples;Min_cycle;Max_cycle;Signal;HPM_P1;HPM_P2
2023/09/06 00:01:08;;;;;;;8.63;5.80;;;;;13.50;97646.00;;;;5035916;28;20229;-85
2023/09/06 00:03:58;;;;;;;6.57;4.97;;;;;13.60;97639.00;;;;5037039;28;20205;-83
2023/09/06 00:06:47;;;;;;;6.37;4.90;;;;;13.80;97641.00;;;;5026616;28;20205;-83
2023/09/06 00:09:36;;;;;;;5.17;4.53;;;;;13.90;97647.00;;;;5018802;28;20206;-84
2023/09/06 00:12:25;;;;;;;5.93;5.30;;;;;13.90;97643.00;;;;5032894;28;20225;-82
2023/09/06 00:15:15;;;;;;;6.47;4.83;;;;;13.90;97642.00;;;;5026617;28;20213;-82
2023/09/06 00:18:05;;;;;;;5.10;4.60;;;;;14.10;97640.00;;;;5025550;28;20201;-82
2023/09/06 00:20:57;;;;;;;7.63;5.43;;;;;13.80;97644.00;;;;5032051;28;20232;-82
2023/09/06 00:23:46;;;;;;;6.97;4.70;;;;;13.60;97642.00;;;;5031900;28;20414;-84
2023/09/06 00:26:35;;;;;;;5.97;5.00;;;;;13.80;97632.00;;;;5033584;28;20205;-83
2023/09/06 00:29:24;;;;;;;6.70;4.63;;;;;13.60;97631.00;;;;5036232;28;20208;-82
2023/09/06 00:32:14;;;;;;;5.80;5.17;;;;;13.40;97641.00;;;;5032700;28;20244;-83
2023/09/06 00:35:04;;;;;;;5.23;4.37;;;;;13.10;97643.00;;;;5035286;28;20205;-81
2023/09/06 00:37:55;;;;;;;5.93;4.77;;;;;13.10;97643.00;;;;5039279;28;20201;-82
2023/09/06 00:40:44;;;;;;;8.83;5.30;;;;;13.20;97637.00;;;;5032744;28;20608;-83
2023/09/06 00:43:35;;;;;;;6.63;6.03;;;;;13.30;97642.00;;;;5026713;28;20193;-82
2023/09/06 00:46:24;;;;;;;5.77;5.10;;;;;13.40;97638.00;;;;5037049;28;20225;-82
2023/09/06 00:49:13;;;;;;;8.90;5.93;;;;;13.50;97638.00;;;;5036486;28;20209;-82
2023/09/06 00:52:03;;;;;;;5.67;4.60;;;;;13.40;97637.00;;;;5033973;28;20225;-83
2023/09/06 00:54:54;;;;;;;6.23;4.83;;;;;13.10;97636.00;;;;5030570;28;20220;-82
2023/09/06 00:57:43;;;;;;;9.77;5.67;;;;;13.10;97641.00;;;;5035108;28;20210;-81
2023/09/06 01:00:33;;;;;;;5.27;4.77;;;;;12.90;97641.00;;;;5031970;28;20226;-83
2023/09/06 01:03:22;;;;;;;6.23;5.13;;;;;13.10;97636.00;;;;5033264;28;20217;-82
2023/09/06 01:06:16;;;;;;;6.10;5.03;;;;;12.70;97628.00;;;;5035226;28;20594;-82
2023/09/06 01:09:07;;;;;;;9.33;5.50;;;;;12.60;97631.00;;;;5027091;28;20210;-83
2023/09/06 01:11:58;;;;;;;4.57;4.17;;;;;12.60;97636.00;;;;5036783;28;20543;-81
2023/09/06 01:14:48;;;;;;;7.07;5.77;;;;;12.60;97625.00;;;;5033329;28;20209;-84
2023/09/06 01:17:37;;;;;;;6.03;5.47;;;;;12.60;97620.00;;;;5025574;28;20193;-81
2023/09/06 01:20:33;;;;;;;7.63;6.80;;;;;12.80;97625.00;;;;5035316;28;20217;-81
2023/09/06 01:23:34;;;;;;;6.23;5.60;;;;;12.70;97611.00;;;;5028919;28;20280;-84
2023/09/06 01:26:24;;;;;;;5.87;5.37;;;;;12.70;97618.00;;;;5036867;28;20215;-82
2023/09/06 01:29:13;;;;;;;6.70;5.97;;;;;13.00;97622.00;;;;5034341;28;20201;-82
2023/09/06 01:32:03;;;;;;;5.93;5.33;;;;;13.30;97629.00;;;;5029362;28;20233;-84
2023/09/06 01:34:54;;;;;;;13.30;5.67;;;;;13.20;97620.00;;;;5029006;28;20202;-83
2023/09/06 01:37:43;;;;;;;8.60;5.33;;;;;13.00;97625.00;;;;5032900;28;20197;-83
2023/09/06 01:40:33;;;;;;;7.27;5.33;;;;;12.70;97615.00;;;;5028110;28;20217;-83
2023/09/06 01:43:22;;;;;;;6.70;5.03;;;;;12.50;97609.00;;;;5037550;28;20678;-82
2023/09/06 01:46:11;;;;;;;7.80;5.20;;;;;12.50;97614.00;;;;5033348;28;20702;-81
2023/09/06 01:49:00;;;;;;;7.17;4.83;;;;;12.70;97603.00;;;;5033455;28;20202;-80
2023/09/06 01:51:49;;;;;;;7.67;5.57;;;;;12.60;97611.00;;;;5031454;28;20221;-81
2023/09/06 01:54:38;;;;;;;8.53;6.17;;;;;12.60;97606.00;;;;5028517;28;20221;-82
2023/09/06 01:57:29;;;;;;;6.47;5.53;;;;;12.50;97603.00;;;;5035004;28;20201;-82
2023/09/06 02:00:23;;;;;;;6.40;5.70;;;;;12.10;97601.00;;;;5032025;28;20216;-83
2023/09/06 02:03:15;;;;;;;7.70;5.63;;;;;12.40;97608.00;;;;5034944;28;20200;-82
2023/09/06 02:06:04;;;;;;;5.77;5.27;;;;;12.60;97612.00;;;;5034132;28;20205;-82
2023/09/06 02:08:53;;;;;;;7.13;5.10;;;;;12.60;97599.00;;;;5034471;28;20220;-82
2023/09/06 02:11:42;;;;;;;6.60;5.30;;;;;12.60;97602.00;;;;5037353;28;20229;-81
2023/09/06 02:14:34;;;;;;;5.90;4.90;;;;;12.30;97596.00;;;;5032979;28;20603;-82
2023/09/06 02:17:24;;;;;;;9.23;5.23;;;;;12.50;97588.00;;;;5036377;28;20208;-82
2023/09/06 02:20:17;;;;;;;7.13;5.83;;;;;12.40;97591.00;;;;5030119;28;20212;-81
2023/09/06 02:23:07;;;;;;;6.77;5.73;;;;;11.90;97599.00;;;;5028180;28;20209;-81
2023/09/06 02:25:56;;;;;;;7.73;6.00;;;;;12.00;97597.00;;;;5028119;28;20205;-82
2023/09/06 02:28:45;;;;;;;8.00;5.80;;;;;12.20;97587.00;;;;5030205;28;20212;-82
2023/09/06 02:31:37;;;;;;;5.03;4.53;;;;;12.20;97586.00;;;;5035062;28;20228;-82
2023/09/06 02:34:26;;;;;;;8.07;6.00;;;;;12.20;97592.00;;;;5033214;28;20754;-83
2023/09/06 02:37:15;;;;;;;6.87;5.47;;;;;12.50;97591.00;;;;5030832;28;20202;-83
2023/09/06 02:40:10;;;;;;;9.00;5.03;;;;;12.40;97593.00;;;;5029615;28;20206;-81
2023/09/06 02:42:59;;;;;;;7.00;5.43;;;;;12.30;97580.00;;;;5033004;28;20558;-82
2023/09/06 02:45:53;;;;;;;5.97;5.20;;;;;12.00;97590.00;;;;5030090;28;20212;-81
2023/09/06 02:48:46;;;;;;;6.37;5.73;;;;;11.90;97587.00;;;;5036898;28;20294;-82
2023/09/06 02:51:37;;;;;;;8.67;5.77;;;;;11.90;97589.00;;;;5036628;28;20213;-83
2023/09/06 02:54:26;;;;;;;6.47;5.80;;;;;12.20;97593.00;;;;5036595;28;20606;-82
2023/09/06 02:57:18;;;;;;;5.17;4.60;;;;;12.10;97592.00;;;;5029596;28;20667;-84
2023/09/06 03:00:19;;;;;;;5.17;4.67;;;;;12.30;97595.00;;;;5027691;28;20216;-83
2023/09/06 03:03:08;;;;;;;8.07;5.03;;;;;12.10;97592.00;;;;5022847;28;20216;-83
2023/09/06 03:06:01;;;;;;;8.10;5.63;;;;;12.00;97586.00;;;;5020493;28;20406;-83
2023/09/06 03:08:51;;;;;;;7.13;5.77;;;;;11.80;97589.00;;;;5022511;28;20213;-83
2023/09/06 03:11:40;;;;;;;6.60;4.80;;;;;11.60;97586.00;;;;5020558;28;20347;-83
2023/09/06 03:14:30;;;;;;;8.00;5.87;;;;;11.70;97588.00;;;;5032582;28;20224;-84
2023/09/06 03:17:22;;;;;;;6.27;5.20;;;;;12.00;97574.00;;;;5027384;28;20202;-83
2023/09/06 03:20:22;;;;;;;8.13;6.33;;;;;12.40;97585.00;;;;5032725;28;20205;-83
2023/09/06 03:23:18;;;;;;;12.93;5.97;;;;;12.50;97592.00;;;;5023758;28;20212;-82
2023/09/06 03:26:09;;;;;;;6.03;5.43;;;;;12.40;97595.00;;;;5027494;28;20212;-84
2023/09/06 03:28:58;;;;;;;6.27;5.67;;;;;12.50;97586.00;;;;5032726;28;20201;-85
2023/09/06 03:31:47;;;;;;;7.10;5.30;;;;;12.10;97589.00;;;;5033464;28;20225;-84
2023/09/06 03:34:36;;;;;;;9.30;5.70;;;;;11.80;97586.00;;;;5033207;28;20217;-84
2023/09/06 03:37:25;;;;;;;8.00;4.73;;;;;11.70;97590.00;;;;5033636;28;20205;-82
2023/09/06 03:40:25;;;;;;;7.10;5.43;;;;;11.90;97581.00;;;;5024189;28;20571;-84
2023/09/06 03:43:16;;;;;;;7.10;5.20;;;;;11.60;97581.00;;;;5030333;28;20216;-84
2023/09/06 03:46:09;;;;;;;7.57;6.00;;;;;11.60;97590.00;;;;5025543;28;20205;-81
2023/09/06 03:48:58;;;;;;;6.10;5.47;;;;;11.60;97583.00;;;;5026977;28;20206;-83
2023/09/06 03:51:48;;;;;;;6.83;5.93;;;;;11.50;97580.00;;;;5031978;28;20217;-83
2023/09/06 03:54:37;;;;;;;9.90;6.07;;;;;11.50;97581.00;;;;5030408;28;20228;-83
2023/09/06 03:57:28;;;;;;;5.57;5.07;;;;;11.60;97583.00;;;;5030554;28;20248;-84
2023/09/06 04:00:24;;;;;;;6.33;5.17;;;;;11.50;97590.00;;;;5027375;28;20213;-83
2023/09/06 04:03:13;;;;;;;9.23;5.27;;;;;11.70;97580.00;;;;5026504;28;20202;-83
2023/09/06 04:06:06;;;;;;;6.90;6.23;;;;;12.10;97592.00;;;;5028456;28;20198;-84
2023/09/06 04:08:55;;;;;;;7.27;6.53;;;;;12.10;97591.00;;;;5032023;28;20216;-81
2023/09/06 04:11:46;;;;;;;7.03;6.33;;;;;12.20;97590.00;;;;5035176;28;20932;-85
2023/09/06 04:14:38;;;;;;;6.47;5.67;;;;;12.30;97588.00;;;;5032277;28;20216;-82
2023/09/06 04:17:28;;;;;;;13.23;6.63;;;;;12.20;97587.00;;;;5017773;28;20209;-82
2023/09/06 04:20:21;;;;;;;7.93;6.17;;;;;12.00;97583.00;;;;5029672;28;20229;-84
2023/09/06 04:23:12;;;;;;;7.70;5.60;;;;;11.70;97586.00;;;;5034030;28;20201;-82
2023/09/06 04:26:02;;;;;;;7.50;5.50;;;;;11.50;97593.00;;;;5035619;28;20192;-82
2023/09/06 04:28:51;;;;;;;7.13;5.97;;;;;11.40;97590.00;;;;5028173;28;20209;-84
2023/09/06 04:31:42;;;;;;;5.10;4.60;;;;;11.30;97593.00;;;;5032953;28;20260;-84
2023/09/06 04:34:31;;;;;;;7.57;6.33;;;;;11.50;97597.00;;;;5028744;28;20365;-85
2023/09/06 04:37:20;;;;;;;12.83;8.87;;;;;11.50;97599.00;;;;5033958;28;20209;-83
2023/09/06 04:40:12;;;;;;;13.67;11.30;;;;;11.40;97600.00;;;;5032844;28;20611;-84
2023/09/06 04:43:01;;;;;;;11.23;9.03;;;;;11.70;97602.00;;;;5034933;28;20208;-82
2023/09/06 04:45:51;;;;;;;7.90;7.20;;;;;11.70;97607.00;;;;5029149;28;20220;-85
2023/09/06 04:48:42;;;;;;;9.00;5.97;;;;;11.60;97606.00;;;;5025772;28;20205;-85
2023/09/06 04:51:31;;;;;;;9.90;5.77;;;;;11.50;97609.00;;;;5027034;28;20225;-83
2023/09/06 04:54:21;;;;;;;8.63;6.57;;;;;11.70;97614.00;;;;5019160;28;20240;-84
2023/09/06 04:57:10;;;;;;;6.60;6.00;;;;;11.70;97616.00;;;;5029396;28;20419;-84
2023/09/06 04:59:59;;;;;;;7.97;6.17;;;;;12.00;97616.00;;;;5033849;28;20201;-83
2023/09/06 05:02:49;;;;;;;9.60;6.00;;;;;11.90;97611.00;;;;5036645;28;20595;-84
2023/09/06 05:05:41;;;;;;;7.17;5.73;;;;;11.90;97607.00;;;;5040108;28;20201;-83
2023/09/06 05:08:32;;;;;;;9.00;7.10;;;;;12.10;97598.00;;;;5039114;28;20206;-82
2023/09/06 05:11:21;;;;;;;7.47;6.23;;;;;12.10;97605.00;;;;5031504;28;20225;-84
2023/09/06 05:14:10;;;;;;;8.23;6.20;;;;;11.90;97620.00;;;;5013967;28;20217;-83
2023/09/06 05:16:59;;;;;;;6.97;5.70;;;;;11.60;97607.00;;;;5013052;28;20206;-81
2023/09/06 05:19:52;;;;;;;7.70;6.43;;;;;11.50;97609.00;;;;5008955;28;20205;-84
2023/09/06 05:22:43;;;;;;;8.60;5.87;;;;;11.80;97601.00;;;;5011399;28;20210;-83
2023/09/06 05:25:32;;;;;;;7.00;5.17;;;;;11.90;97604.00;;;;5002503;28;20206;-84
2023/09/06 05:28:21;;;;;;;7.30;6.60;;;;;11.90;97599.00;;;;5005105;28;20594;-82
2023/09/06 05:31:10;;;;;;;6.40;5.33;;;;;12.20;97605.00;;;;5009900;28;20762;-86
2023/09/06 05:33:59;;;;;;;8.07;6.17;;;;;12.50;97592.00;;;;5013120;28;20595;-86
2023/09/06 05:36:48;;;;;;;8.13;6.13;;;;;12.70;97598.00;;;;5013308;28;20201;-86
2023/09/06 05:39:39;;;;;;;9.23;6.73;;;;;12.50;97595.00;;;;5015399;28;20210;-84
2023/09/06 05:42:28;;;;;;;7.20;6.50;;;;;12.70;97600.00;;;;5015430;28;20233;-82
2023/09/06 05:45:18;;;;;;;8.80;6.87;;;;;12.80;97603.00;;;;5016000;28;20224;-84
2023/09/06 05:48:07;;;;;;;6.90;6.20;;;;;12.90;97604.00;;;;5015867;28;20205;-83
2023/09/06 05:50:58;;;;;;;7.20;5.53;;;;;13.20;97599.00;;;;5013130;28;20224;-84
2023/09/06 05:53:47;;;;;;;7.57;5.93;;;;;13.10;97596.00;;;;5012597;28;20206;-84
2023/09/06 05:56:38;;;;;;;7.50;6.80;;;;;13.30;97596.00;;;;5012791;28;20222;-85
2023/09/06 05:59:27;;;;;;;7.53;6.30;;;;;13.50;97595.00;;;;5012664;28;20202;-83
2023/09/06 06:02:16;;;;;;;10.63;6.30;;;;;13.60;97593.00;;;;5010103;28;20230;-85
2023/09/06 06:05:06;;;;;;;9.47;6.20;;;;;13.30;97598.00;;;;5013497;28;20206;-83
2023/09/06 06:07:57;;;;;;;7.17;6.47;;;;;13.50;97608.00;;;;5011565;28;20478;-83
2023/09/06 06:10:46;;;;;;;8.27;6.47;;;;;13.70;97606.00;;;;5018494;28;20233;-83
2023/09/06 06:13:38;;;;;;;7.73;6.17;;;;;14.30;97610.00;;;;5024358;28;20225;-83
2023/09/06 06:16:27;;;;;;;9.10;7.37;;;;;14.40;97607.00;;;;5026283;28;20824;-84
2023/09/06 06:19:17;;;;;;;8.73;6.77;;;;;14.60;97607.00;;;;5030640;28;20210;-86
2023/09/06 06:22:06;;;;;;;8.47;6.37;;;;;14.90;97606.00;;;;5034671;28;20229;-82
2023/09/06 06:24:55;;;;;;;7.50;5.93;;;;;15.10;97613.00;;;;5028666;28;20589;-83
2023/09/06 06:27:44;;;;;;;11.57;6.07;;;;;15.00;97603.00;;;;5019583;28;20205;-83
2023/09/06 06:30:35;;;;;;;7.70;6.37;;;;;15.10;97601.00;;;;5029279;28;20780;-83
2023/09/06 06:33:24;;;;;;;11.80;6.57;;;;;15.10;97603.00;;;;5038663;28;20210;-83
2023/09/06 06:36:13;;;;;;;10.77;6.33;;;;;15.60;97603.00;;;;5026316;28;20240;-84
2023/09/06 06:39:02;;;;;;;8.07;6.70;;;;;15.60;97611.00;;;;5033032;28;20260;-81
2023/09/06 06:41:51;;;;;;;7.37;6.47;;;;;16.00;97607.00;;;;5029228;28;20229;-85
2023/09/06 06:44:45;;;;;;;9.50;6.70;;;;;16.30;97618.00;;;;5032751;28;20201;-83
2023/09/06 06:47:36;;;;;;;10.57;6.90;;;;;16.60;97621.00;;;;5030618;28;20212;-83
2023/09/06 06:50:25;;;;;;;7.93;5.90;;;;;16.60;97619.00;;;;5030117;28;20209;-83
2023/09/06 06:53:14;;;;;;;8.93;6.67;;;;;17.00;97617.00;;;;5029600;28;20612;-83
2023/09/06 06:56:03;;;;;;;8.20;6.20;;;;;16.70;97615.00;;;;5031208;28;20612;-84
2023/09/06 06:58:52;;;;;;;15.83;6.53;;;;;17.30;97617.00;;;;5027780;28;20276;-83
2023/09/06 07:01:41;;;;;;;9.93;5.97;;;;;17.30;97616.00;;;;5031324;28;20225;-83
2023/09/06 07:04:32;;;;;;;8.97;6.07;;;;;17.70;97623.00;;;;5028519;28;20433;-83
2023/09/06 07:07:21;;;;;;;12.30;7.03;;;;;17.60;97617.00;;;;5031964;28;20221;-83
2023/09/06 07:10:12;;;;;;;11.80;6.67;;;;;18.10;97625.00;;;;5033250;28;20312;-83
2023/09/06 07:13:02;;;;;;;9.33;6.03;;;;;18.30;97619.00;;;;5030779;28;20225;-83
2023/09/06 07:15:51;;;;;;;9.90;6.00;;;;;18.50;97624.00;;;;5040293;28;20225;-83
2023/09/06 07:18:41;;;;;;;7.50;5.80;;;;;18.70;97623.00;;;;5044356;28;20717;-83
2023/09/06 07:21:31;;;;;;;15.10;6.53;;;;;18.80;97609.00;;;;5034939;28;20761;-86
2023/09/06 07:24:20;;;;;;;11.00;5.90;;;;;19.00;97618.00;;;;5018750;28;20206;-85
2023/09/06 07:27:09;;;;;;;10.73;6.10;;;;;19.30;97631.00;;;;5028827;28;20671;-83
2023/09/06 07:29:58;;;;;;;9.57;6.37;;;;;19.40;97629.00;;;;5026756;28;20596;-86
2023/09/06 07:32:47;;;;;;;7.33;6.37;;;;;19.40;97629.00;;;;5023336;28;20205;-84
2023/09/06 07:35:36;;;;;;;8.63;6.13;;;;;19.50;97621.00;;;;5024253;28;20205;-85
2023/09/06 07:38:27;;;;;;;11.37;6.20;;;;;19.60;97629.00;;;;5033067;28;20205;-83
2023/09/06 07:41:19;;;;;;;8.57;5.90;;;;;19.70;97627.00;;;;5026228;28;20232;-84
2023/09/06 07:44:09;;;;;;;5.37;4.70;;;;;19.90;97627.00;;;;5027002;28;20210;-86
2023/09/06 07:46:58;;;;;;;12.47;5.70;;;;;20.20;97620.00;;;;5032119;28;20193;-85
2023/09/06 07:49:47;;;;;;;7.77;6.07;;;;;20.30;97620.00;;;;5031812;28;20629;-84
2023/09/06 07:52:38;;;;;;;12.77;6.03;;;;;20.30;97621.00;;;;5027119;28;20209;-83
2023/09/06 07:55:28;;;;;;;9.57;5.67;;;;;20.50;97629.00;;;;5029501;28;20213;-84
2023/09/06 07:58:17;;;;;;;8.87;5.93;;;;;20.80;97632.00;;;;5031626;28;20209;-85
2023/09/06 08:01:07;;;;;;;6.00;4.87;;;;;21.00;97633.00;;;;5028832;28;20221;-83
2023/09/06 08:04:03;;;;;;;6.87;5.57;;;;;21.30;97625.00;;;;5028286;28;20205;-83
2023/09/06 08:06:55;;;;;;;7.83;5.23;;;;;21.50;97623.00;;;;5027820;28;20206;-82
2023/09/06 08:09:46;;;;;;;6.17;5.57;;;;;21.60;97627.00;;;;5025637;28;20677;-85
2023/09/06 08:12:36;;;;;;;9.93;5.43;;;;;21.60;97624.00;;;;5021843;28;20216;-85
2023/09/06 08:15:25;;;;;;;5.33;4.80;;;;;22.00;97627.00;;;;5030458;28;20213;-86
2023/09/06 08:18:14;;;;;;;5.93;4.87;;;;;22.30;97628.00;;;;5038206;28;20692;-83
2023/09/06 08:21:04;;;;;;;8.50;5.37;;;;;22.40;97625.00;;;;5027626;28;20841;-83
2023/09/06 08:23:53;;;;;;;8.17;6.07;;;;;22.50;97631.00;;;;5026573;28;20654;-83
2023/09/06 08:26:42;;;;;;;8.77;6.00;;;;;22.70;97631.00;;;;5024691;28;20279;-87
2023/09/06 08:29:32;;;;;;;6.23;4.03;;;;;22.90;97629.00;;;;5024461;28;20677;-83
2023/09/06 08:32:21;;;;;;;7.40;5.33;;;;;23.10;97629.00;;;;5028424;28;20630;-86
2023/09/06 08:35:12;;;;;;;6.53;4.93;;;;;23.20;97626.00;;;;5028889;28;20202;-87
2023/09/06 08:38:02;;;;;;;10.50;4.83;;;;;23.30;97633.00;;;;5030359;28;20237;-83
2023/09/06 08:40:51;;;;;;;6.97;4.73;;;;;23.40;97637.00;;;;5028258;28;20702;-83
2023/09/06 08:43:44;;;;;;;9.23;4.43;;;;;23.70;97639.00;;;;5030637;28;20670;-83
2023/09/06 08:46:38;;;;;;;6.53;4.07;;;;;23.90;97629.00;;;;5032365;28;20197;-84
2023/09/06 08:49:28;;;;;;;6.23;4.77;;;;;24.10;97639.00;;;;5030538;28;20313;-84
2023/09/06 08:52:18;;;;;;;8.10;4.73;;;;;24.20;97632.00;;;;5029685;28;20248;-84
2023/09/06 08:55:09;;;;;;;8.67;4.50;;;;;24.50;97631.00;;;;5032927;28;20606;-84
2023/09/06 08:57:59;;;;;;;9.30;5.07;;;;;24.80;97637.00;;;;5032530;28;20228;-84
2023/09/06 09:00:48;;;;;;;5.13;4.10;;;;;25.00;97637.00;;;;5033325;28;20232;-85
2023/09/06 09:03:38;;;;;;;6.23;4.20;;;;;25.10;97633.00;;;;5035630;28;20279;-84
2023/09/06 09:06:29;;;;;;;8.43;4.40;;;;;25.30;97632.00;;;;5033498;28;20216;-85
2023/09/06 09:09:18;;;;;;;9.97;3.60;;;;;25.20;97627.00;;;;5031188;28;20304;-87
2023/09/06 09:12:08;;;;;;;5.03;3.77;;;;;25.60;97631.00;;;;5035526;28;20236;-86
2023/09/06 09:14:57;;;;;;;4.37;3.53;;;;;25.70;97630.00;;;;5031649;28;20310;-85
2023/09/06 09:17:51;;;;;;;6.03;3.17;;;;;25.80;97635.00;;;;5031761;28;20240;-85
2023/09/06 09:20:45;;;;;;;2.43;2.23;;;;;25.70;97633.00;;;;5035769;28;20706;-83
2023/09/06 09:23:43;;;;;;;3.80;2.40;;;;;25.80;97622.00;;;;5032441;28;20208;-85
2023/09/06 09:26:33;;;;;;;3.70;2.53;;;;;25.70;97624.00;;;;5035173;28;20231;-85
2023/09/06 09:29:22;;;;;;;2.77;2.50;;;;;26.00;97626.00;;;;5033118;28;20213;-85
2023/09/06 09:32:12;;;;;;;7.17;3.13;;;;;26.50;97622.00;;;;5035674;28;20225;-85
2023/09/06 09:35:02;;;;;;;4.70;3.00;;;;;26.80;97629.00;;;;5034273;28;20205;-85
2023/09/06 09:37:53;;;;;;;3.90;3.10;;;;;26.30;97617.00;;;;5033752;28;20583;-84
2023/09/06 09:40:44;;;;;;;3.20;2.20;;;;;26.70;97624.00;;;;5028083;28;20225;-84
2023/09/06 09:43:35;;;;;;;2.97;2.43;;;;;26.80;97618.00;;;;5031843;28;20198;-84
2023/09/06 09:46:29;;;;;;;3.37;2.70;;;;;26.70;97619.00;;;;5035820;28;20212;-85
2023/09/06 09:49:19;;;;;;;5.83;3.10;;;;;27.30;97617.00;;;;5036784;28;20213;-84
2023/09/06 09:52:11;;;;;;;3.07;2.77;;;;;27.50;97621.00;;;;5029451;28;20234;-84
2023/09/06 09:55:04;;;;;;;5.10;3.20;;;;;27.70;97624.00;;;;5035858;28;20592;-83
2023/09/06 09:57:53;;;;;;;3.57;2.77;;;;;27.30;97618.00;;;;5027664;28;20213;-85
2023/09/06 10:00:42;;;;;;;2.80;2.57;;;;;27.90;97621.00;;;;5031408;28;20222;-85
2023/09/06 10:03:33;;;;;;;6.97;3.50;;;;;28.10;97629.00;;;;5032295;28;21157;-82
2023/09/06 10:06:22;;;;;;;5.60;3.63;;;;;28.30;97625.00;;;;5032954;28;20217;-83
2023/09/06 10:09:12;;;;;;;4.17;3.27;;;;;27.70;97624.00;;;;5032174;28;20214;-83
2023/09/06 10:12:04;;;;;;;6.63;3.10;;;;;28.10;97618.00;;;;5036877;28;20235;-85
2023/09/06 10:14:54;;;;;;;4.83;3.83;;;;;28.40;97624.00;;;;5033101;28;20207;-81
2023/09/06 10:17:43;;;;;;;13.47;3.60;;;;;28.00;97621.00;;;;5034881;28;20225;-81
2023/09/06 10:20:34;;;;;;;4.67;3.60;;;;;28.80;97614.00;;;;5031974;28;20265;-82
2023/09/06 10:23:23;;;;;;;3.17;2.87;;;;;28.40;97617.00;;;;5020869;28;20208;-83
2023/09/06 10:26:12;;;;;;;4.13;3.50;;;;;29.00;97611.00;;;;5025597;28;20221;-81
2023/09/06 10:29:03;;;;;;;4.70;3.17;;;;;29.30;97612.00;;;;5024566;28;20680;-81
2023/09/06 10:31:53;;;;;;;4.37;3.40;;;;;28.60;97614.00;;;;5029635;28;20236;-81
2023/09/06 10:34:45;;;;;;;3.87;2.90;;;;;29.40;97610.00;;;;5026888;28;20300;-80
2023/09/06 10:38:01;;;;;;;3.17;2.60;;;;;29.60;97606.00;;;;5025332;28;20228;-80
2023/09/06 10:41:11;;;;;;;3.50;3.07;;;;;29.00;97610.00;;;;5022991;28;20221;-82
2023/09/06 10:44:07;;;;;;;3.87;2.87;;;;;28.90;97611.00;;;;5030931;28;20209;-81
2023/09/06 10:46:56;;;;;;;4.53;3.17;;;;;29.20;97604.00;;;;5028755;28;20201;-82
2023/09/06 10:50:08;;;;;;;6.03;3.57;;;;;28.50;97598.00;;;;5023563;28;20201;-81
2023/09/06 10:53:00;;;;;;;6.80;3.30;;;;;28.90;97594.00;;;;5027581;28;20703;-81
2023/09/06 10:55:50;;;;;;;4.43;3.80;;;;;28.90;97631.00;;;;5028373;28;20214;-82
2023/09/06 10:58:39;;;;;;;3.87;2.70;;;;;29.90;97585.00;;;;5031641;28;20246;-81
2023/09/06 11:01:30;;;;;;;3.73;3.43;;;;;30.40;97581.00;;;;5025220;28;20226;-81
2023/09/06 11:04:26;;;;;;;2.87;2.63;;;;;30.70;97581.00;;;;5024265;28;20214;-81
2023/09/06 11:07:15;;;;;;;5.87;2.87;;;;;31.30;97578.00;;;;5029446;28;20208;-81
2023/09/06 11:10:06;;;;;;;5.00;2.93;;;;;31.20;97584.00;;;;5023433;28;20686;-82
2023/09/06 11:12:57;;;;;;;8.83;3.10;;;;;31.50;97579.00;;;;5024755;28;20216;-83
2023/09/06 11:15:46;;;;;;;4.33;2.43;;;;;31.70;97580.00;;;;5026065;28;20208;-81
2023/09/06 11:18:46;;;;;;;2.70;2.38;;;;;32.30;97568.00;;;;5021943;28;20594;-81
2023/09/06 11:21:36;;;;;;;3.63;2.85;;;;;32.20;97573.00;;;;5023790;28;20225;-83
2023/09/06 11:24:34;;;;;;;3.15;2.83;;;;;32.10;97574.00;;;;5023789;28;20251;-82
2023/09/06 11:27:29;;;;;;;3.85;3.47;;;;;32.10;97565.00;;;;5023487;28;20208;-82
2023/09/06 11:30:21;;;;;;;2.47;2.28;;;;;32.10;97559.00;;;;5022957;28;20719;-82
2023/09/06 11:33:11;;;;;;;6.35;2.33;;;;;32.80;97564.00;;;;5025610;28;20208;-81
2023/09/06 11:36:04;;;;;;;3.70;3.38;;;;;31.50;97561.00;;;;5025513;28;20212;-83
2023/09/06 11:38:53;;;;;;;3.53;2.80;;;;;31.90;97559.00;;;;5027006;28;20231;-83
2023/09/06 11:41:43;;;;;;;3.10;2.65;;;;;32.40;97572.00;;;;5025753;28;20241;-82
2023/09/06 11:44:33;;;;;;;5.65;2.97;;;;;31.20;97557.00;;;;5024234;28;20199;-82
2023/09/06 11:47:23;;;;;;;5.43;2.63;;;;;30.20;97553.00;;;;5022532;28;20448;-81
2023/09/06 11:50:16;;;;;;;2.72;2.53;;;;;29.10;97548.00;;;;5027770;28;20219;-81
2023/09/06 11:53:09;;;;;;;8.48;7.85;;;;;29.50;97562.00;;;;5021448;28;20205;-81
2023/09/06 11:56:00;;;;;;;3.43;3.10;;;;;29.30;97544.00;;;;5021482;28;20204;-81
2023/09/06 11:58:51;;;;;;;2.67;2.47;;;;;31.30;97554.00;;;;5026207;28;20220;-82
2023/09/06 12:01:40;;;;;;;4.05;2.30;;;;;32.70;97544.00;;;;5021736;28;20232;-83
2023/09/06 12:04:32;;;;;;;2.65;2.30;;;;;32.50;97541.00;;;;5022769;28;20207;-81
2023/09/06 12:07:23;;;;;;;3.60;2.28;;;;;33.20;97541.00;;;;5017505;28;20586;-83
2023/09/06 12:10:18;;;;;;;5.20;3.05;;;;;32.80;97539.00;;;;5027917;28;20200;-83
2023/09/06 12:13:07;;;;;;;2.60;2.40;;;;;34.00;97536.00;;;;5028560;28;20223;-83
2023/09/06 12:15:57;;;;;;;39.92;37.28;;;;;34.20;97539.00;;;;5029148;28;20211;-83
2023/09/06 12:18:47;;;;;;;3.17;2.17;;;;;34.60;97533.00;;;;5024759;28;20227;-82
2023/09/06 12:21:36;;;;;;;3.33;2.22;;;;;35.70;97522.00;;;;5025359;28;20220;-82
2023/09/06 12:24:24;;;;;;;4.90;2.50;;;32.20;70.00;35.80;97522.00;;;;5027754;28;20212;-83
2023/09/06 12:27:18;;;;;;;3.28;2.28;;;32.10;70.70;36.00;97525.00;;;;5026410;28;20212;-83
2023/09/06 12:30:09;;;;;;;1.95;1.65;;;32.50;70.10;36.90;97515.00;;;;5027103;28;20469;-82
2023/09/06 12:32:58;;;;;;;2.35;2.15;;;32.90;69.60;32.10;97513.00;;;;5028335;28;20213;-82
2023/09/06 12:35:47;;;;;;;2.10;2.00;;;32.40;63.00;35.00;97514.00;;;;5024373;28;20192;-83
2023/09/06 12:38:35;;;;;;;2.45;1.98;;;32.10;66.60;36.30;97509.00;;;;5025417;28;20217;-82
2023/09/06 12:41:24;;;;;;;3.38;2.05;;;32.40;67.70;34.80;97509.00;;;;5024590;28;20233;-82
2023/09/06 12:44:15;;;;;;;1.88;1.70;;;32.60;62.80;33.20;97512.00;;;;5023094;28;20283;-82
2023/09/06 12:47:06;;;;;;;3.63;2.45;;;;;32.70;97499.00;;;;5025998;28;20196;-82
2023/09/06 12:49:55;;;;;;;2.88;2.00;;;;;34.20;97511.00;;;;5024385;28;20212;-82
2023/09/06 12:52:44;;;;;;;2.05;1.95;;;;;35.70;97496.00;;;;5027006;28;20205;-82
2023/09/06 12:55:33;;;;;;;3.38;2.45;;;32.10;64.00;35.60;97499.00;;;;5026305;28;20745;-83
2023/09/06 12:58:22;;;;;;;2.80;2.03;;;32.30;63.50;36.00;97497.00;;;;5021775;28;20221;-83
2023/09/06 13:01:12;;;;;;;3.17;1.98;;;32.50;64.00;36.40;97491.00;;;;5021474;28;20218;-83
2023/09/06 13:04:01;;;;;;;2.97;2.25;;;32.90;62.60;36.90;97484.00;;;;5020975;28;20590;-82
2023/09/06 13:06:50;;;;;;;3.28;2.40;;;33.20;63.00;36.20;97482.00;;;;5021954;28;20568;-81
2023/09/06 13:09:39;;;;;;;3.00;2.30;;;33.50;61.20;34.40;97476.00;;;;5022056;28;20585;-81
2023/09/06 13:12:27;;;;;;;2.47;2.10;;;33.30;58.20;32.70;97468.00;;;;5021064;28;20224;-81
2023/09/06 13:15:17;;;;;;;4.10;2.20;;;31.90;60.80;32.00;97466.00;;;;5023657;28;20580;-81
2023/09/06 13:18:07;;;;;;;2.40;2.20;;;31.50;60.20;31.90;97464.00;;;;5023433;28;20206;-81
2023/09/06 13:20:57;;;;;;;2.22;2.13;;;31.00;59.60;32.30;97472.00;;;;5021222;28;20218;-80
2023/09/06 13:23:45;;;;;;;2.78;2.47;;;30.90;61.80;32.10;97461.00;;;;5026137;28;20673;-82
2023/09/06 13:26:34;;;;;;;3.67;3.38;;;30.60;61.20;33.30;97460.00;;;;5031476;28;20206;-81
2023/09/06 13:29:23;;;;;;;4.53;2.20;;;30.80;64.60;34.80;97457.00;;;;5025639;28;20224;-81
2023/09/06 13:32:13;;;;;;;3.08;2.33;;;31.30;63.30;35.30;97455.00;;;;5028627;28;20226;-82
2023/09/06 13:35:04;;;;;;;4.60;2.60;;;31.80;63.50;32.50;97446.00;;;;5026496;28;20566;-80
2023/09/06 13:37:53;;;;;;;1.92;1.83;;;31.60;59.20;31.80;97455.00;;;;5029331;28;20209;-81
2023/09/06 13:40:42;;;;;;;1.85;1.58;;;30.80;58.70;32.10;97448.00;;;;5030561;28;20235;-82
2023/09/06 13:43:30;;;;;;;2.00;1.38;;;30.60;61.00;32.10;97444.00;;;;5029700;28;20197;-81
2023/09/06 13:46:19;;;;;;;2.88;1.65;;;30.50;59.30;33.40;97453.00;;;;5025510;28;20197;-82
2023/09/06 13:49:08;;;;;;;2.10;1.88;;;30.60;61.50;32.90;97441.00;;;;5023764;28;20276;-80
2023/09/06 13:51:58;;;;;;;2.00;1.90;;;30.70;59.80;33.00;97439.00;;;;5027937;28;20240;-82
2023/09/06 13:54:47;;;;;;;2.15;1.88;;;30.90;60.90;31.80;97441.00;;;;5019761;28;20201;-80
2023/09/06 13:57:36;;;;;;;1.65;1.50;;;30.80;59.10;32.30;97435.00;;;;5022270;28;20693;-81
2023/09/06 14:00:25;;;;;;;1.65;1.52;;;30.70;59.90;32.40;97442.00;;;;5030975;28;20228;-83